createdAt,value
2019-04-04T00:01:37.401Z,100114.64
2019-04-04T00:04:07.882Z,100111.51
2019-04-04T00:06:38.322Z,100109.53
2019-04-04T00:09:10.867Z,100111.94
2019-04-04T00:11:41.329Z,100109.02
2019-04-04T00:14:13.092Z,100104.97
2019-04-04T00:16:48.837Z,100107.66
2019-04-04T00:19:19.131Z,100097.59
2019-04-04T00:21:49.608Z,100099.91
2019-04-04T00:24:20.040Z,100095.11
2019-04-04T00:26:50.533Z,100092.73
2019-04-04T00:29:21.483Z,100089.09
2019-04-04T00:31:52.023Z,100092.64
2019-04-04T00:34:22.503Z,100082.88
2019-04-04T00:36:52.942Z,100085.48
2019-04-04T00:39:23.410Z,100085.34
2019-04-04T00:41:53.899Z,100080.97
2019-04-04T00:44:24.339Z,100085.02
2019-04-04T00:46:54.782Z,100086.36
2019-04-04T00:49:25.270Z,100081.20
2019-04-04T00:51:55.692Z,100078.18
2019-04-04T00:54:26.165Z,100079.62
2019-04-04T00:56:56.595Z,100083.05
2019-04-04T00:59:27.058Z,100081.59
2019-04-04T01:01:57.639Z,100082.55
2019-04-04T01:04:30.804Z,100074.95
2019-04-04T01:07:00.384Z,100079.00
2019-04-04T01:09:30.858Z,100072.98
2019-04-04T01:12:01.305Z,100076.53
2019-04-04T01:14:31.803Z,100078.70
2019-04-04T01:17:04.154Z,100074.45
2019-04-04T01:19:34.415Z,100067.81
2019-04-04T01:22:05.003Z,100069.27
2019-04-04T01:24:35.477Z,100068.00
2019-04-04T01:27:06.288Z,100068.30
2019-04-04T01:29:39.003Z,100068.63
2019-04-04T01:32:09.550Z,100062.18
2019-04-04T01:34:40.091Z,100058.77
2019-04-04T01:37:10.565Z,100060.55
2019-04-04T01:39:40.995Z,100060.55
2019-04-04T01:42:11.482Z,100054.30
2019-04-04T01:44:42.285Z,100055.34
2019-04-04T01:47:14.950Z,100056.17
2019-04-04T01:49:45.416Z,100051.61
2019-04-04T01:52:15.900Z,100050.48
2019-04-04T01:54:46.381Z,100051.30
2019-04-04T01:57:16.811Z,100055.55
2019-04-04T01:59:47.297Z,100048.18
2019-04-04T02:02:18.431Z,100048.61
2019-04-04T02:04:48.971Z,100054.09
2019-04-04T02:07:19.411Z,100051.48
2019-04-04T02:09:49.899Z,100052.41
2019-04-04T02:12:20.443Z,100048.38
2019-04-04T02:14:50.923Z,100052.41
2019-04-04T02:17:22.355Z,100046.39
2019-04-04T02:19:55.597Z,100038.31
2019-04-04T02:22:25.433Z,100031.28
2019-04-04T02:24:55.929Z,100028.59
2019-04-04T02:27:26.360Z,100028.98
2019-04-04T02:29:56.793Z,100037.48
2019-04-04T02:32:27.792Z,100038.73
2019-04-04T02:34:58.218Z,100036.04
2019-04-04T02:37:28.765Z,100034.37
2019-04-04T02:39:59.240Z,100033.25
2019-04-04T02:42:29.669Z,100029.83
2019-04-04T02:45:00.108Z,100030.32
2019-04-04T02:47:30.548Z,100025.45
2019-04-04T02:50:02.201Z,100022.66
2019-04-04T02:52:32.765Z,100026.80
2019-04-04T02:55:03.361Z,100027.42
2019-04-04T02:57:33.809Z,100018.81
2019-04-04T03:00:05.316Z,100022.86
2019-04-04T03:02:36.957Z,100024.73
2019-04-04T03:05:07.824Z,100023.58
2019-04-04T03:07:38.320Z,100021.31
2019-04-04T03:10:09.233Z,100020.78
2019-04-04T03:12:39.891Z,100022.02
2019-04-04T03:15:11.285Z,100022.02
2019-04-04T03:17:41.724Z,100028.13
2019-04-04T03:20:16.366Z,100029.56
2019-04-04T03:22:44.660Z,100026.87
2019-04-04T03:25:15.697Z,100027.40
2019-04-04T03:27:46.272Z,100030.39
2019-04-04T03:30:17.492Z,100022.92
2019-04-04T03:32:54.142Z,100028.03
2019-04-04T03:35:25.786Z,100025.34
2019-04-04T03:37:52.555Z,100028.52
2019-04-04T03:40:25.594Z,100029.48
2019-04-04T03:42:55.211Z,100029.55
2019-04-04T03:45:27.338Z,100028.51
2019-04-04T03:47:58.027Z,100024.34
2019-04-04T03:50:30.386Z,100041.84
2019-04-04T03:53:00.703Z,100031.88
2019-04-04T03:55:31.152Z,100040.43
2019-04-04T03:58:01.737Z,100040.02
2019-04-04T04:00:32.493Z,100040.02
2019-04-04T04:03:02.940Z,100048.78
2019-04-04T04:05:35.567Z,100048.78
2019-04-04T04:08:05.871Z,100045.66
2019-04-04T04:10:36.308Z,100045.66
2019-04-04T04:13:07.021Z,100044.12
2019-04-04T04:15:37.459Z,100050.13
2019-04-04T04:18:07.906Z,100055.30
2019-04-04T04:20:38.393Z,100055.81
2019-04-04T04:23:08.834Z,100058.42
2019-04-04T04:25:39.319Z,100058.42
2019-04-04T04:28:09.791Z,100062.27
2019-04-04T04:30:40.842Z,100066.72
2019-04-04T04:33:11.357Z,100066.41
2019-04-04T04:35:42.409Z,100066.41
2019-04-04T04:38:13.012Z,100064.83
2019-04-04T04:40:46.853Z,100064.83
2019-04-04T04:43:16.092Z,100069.05
2019-04-04T04:45:46.725Z,100069.05
2019-04-04T04:48:17.176Z,100072.40
2019-04-04T04:50:49.738Z,99974.84
2019-04-04T04:53:20.231Z,100078.44
2019-04-04T04:55:51.234Z,100078.06
2019-04-04T04:58:22.264Z,100086.59
2019-04-04T05:00:52.841Z,100084.83
2019-04-04T05:03:24.266Z,100080.16
2019-04-04T05:05:55.334Z,100081.21
2019-04-04T05:08:25.829Z,100084.98
2019-04-04T05:10:56.307Z,100079.98
2019-04-04T05:13:28.806Z,100077.64
2019-04-04T05:15:59.028Z,100081.92
2019-04-04T05:18:29.529Z,100078.31
2019-04-04T05:21:01.865Z,100079.46
2019-04-04T05:23:32.401Z,100079.23
2019-04-04T05:26:03.332Z,100082.55
2019-04-04T05:28:33.859Z,100077.59
2019-04-04T05:31:04.318Z,99982.67
2019-04-04T05:33:34.890Z,100075.52
2019-04-04T05:36:06.063Z,100077.89
2019-04-04T05:38:36.594Z,100073.05
2019-04-04T05:41:07.221Z,100074.58
2019-04-04T05:43:38.140Z,100076.52
2019-04-04T05:46:09.080Z,100071.16
2019-04-04T05:48:39.638Z,100071.70
2019-04-04T05:51:10.234Z,100074.30
2019-04-04T05:53:40.717Z,100076.44
2019-04-04T05:56:14.837Z,100076.59
2019-04-04T05:58:43.391Z,100079.91
2019-04-04T06:01:15.386Z,100081.70
2019-04-04T06:03:47.888Z,100081.41
2019-04-04T06:06:18.137Z,100074.70
2019-04-04T06:08:48.611Z,100076.10
2019-04-04T06:11:21.649Z,100075.91
2019-04-04T06:13:51.288Z,100075.10
2019-04-04T06:16:21.787Z,100070.27
2019-04-04T06:18:52.302Z,100076.41
2019-04-04T06:21:22.775Z,100069.62
2019-04-04T06:23:55.663Z,100070.95
2019-04-04T06:26:25.646Z,100075.53
2019-04-04T06:28:56.210Z,100077.11
2019-04-04T06:31:30.661Z,100068.65
2019-04-04T06:33:58.938Z,100069.56
2019-04-04T06:36:29.524Z,100068.44
2019-04-04T06:39:00.145Z,100069.84
2019-04-04T06:41:32.391Z,100069.56
2019-04-04T06:44:06.278Z,100071.39
2019-04-04T06:46:36.742Z,100072.30
2019-04-04T06:49:07.251Z,100078.84
2019-04-04T06:51:37.905Z,100078.11
2019-04-04T06:54:08.389Z,100069.91
2019-04-04T06:56:38.836Z,99979.92
2019-04-04T06:59:12.168Z,100066.42
2019-04-04T07:01:41.568Z,100070.22
2019-04-04T07:04:12.067Z,100063.34
2019-04-04T07:06:42.575Z,100060.71
2019-04-04T07:09:13.577Z,100062.64
2019-04-04T07:11:44.250Z,100062.73
2019-04-04T07:14:14.702Z,100059.04
2019-04-04T07:16:45.224Z,100061.37
2019-04-04T07:19:15.705Z,100060.02
2019-04-04T07:21:46.200Z,100058.84
2019-04-04T07:24:16.662Z,100062.92
2019-04-04T07:26:47.121Z,100058.58
2019-04-04T07:29:17.645Z,100052.36
2019-04-04T07:31:48.107Z,100048.97
2019-04-04T07:34:18.630Z,100060.67
2019-04-04T07:36:51.185Z,100049.44
2019-04-04T07:39:21.482Z,100054.40
2019-04-04T07:41:51.940Z,100045.33
2019-04-04T07:44:23.303Z,100047.98
2019-04-04T07:46:54.393Z,100044.56
2019-04-04T07:49:24.904Z,100047.84
2019-04-04T07:51:55.388Z,100048.86
2019-04-04T07:54:25.839Z,100048.31
2019-04-04T07:56:56.439Z,100049.98
2019-04-04T07:59:26.881Z,100047.80
2019-04-04T08:01:57.841Z,100048.57
2019-04-04T08:04:28.332Z,100040.35
2019-04-04T08:06:58.876Z,100042.77
2019-04-04T08:09:29.365Z,100044.41
2019-04-04T08:11:59.869Z,100044.11
2019-04-04T08:14:30.392Z,100044.75
2019-04-04T08:17:00.890Z,100041.38
2019-04-04T08:19:31.339Z,100043.36
2019-04-04T08:22:02.032Z,100041.81
2019-04-04T08:24:32.615Z,100041.49
2019-04-04T08:27:03.143Z,100038.60
2019-04-04T08:29:33.679Z,100036.45
2019-04-04T08:32:04.233Z,100031.00
2019-04-04T08:34:36.429Z,100030.33
2019-04-04T08:37:07.071Z,100030.05
2019-04-04T08:39:37.559Z,100023.47
2019-04-04T08:42:08.051Z,100018.14
2019-04-04T08:44:38.519Z,100015.00
2019-04-04T08:47:09.017Z,100012.14
2019-04-04T08:49:39.469Z,100011.69
2019-04-04T08:52:16.465Z,100009.36
2019-04-04T08:54:42.147Z,99919.70
2019-04-04T08:57:12.641Z,99923.27
2019-04-04T08:59:43.138Z,100006.25
2019-04-04T09:02:13.672Z,100003.88
2019-04-04T09:04:44.254Z,99992.83
2019-04-04T09:07:14.712Z,99985.56
2019-04-04T09:09:45.272Z,99995.75
2019-04-04T09:12:15.766Z,99989.06
2019-04-04T09:14:46.311Z,99989.12
2019-04-04T09:17:16.770Z,99987.93
2019-04-04T09:19:47.313Z,99987.38
2019-04-04T09:22:17.763Z,99979.08
2019-04-04T09:24:48.247Z,99967.01
2019-04-04T09:27:18.895Z,99973.33
2019-04-04T09:29:49.329Z,99964.84
2019-04-04T09:32:19.784Z,99962.55
2019-04-04T09:34:50.461Z,99971.72
2019-04-04T09:37:20.942Z,99967.11
2019-04-04T09:39:51.381Z,99967.70
2019-04-04T09:42:21.864Z,99957.75
2019-04-04T09:44:52.349Z,99963.42
2019-04-04T09:47:22.971Z,99954.22
2019-04-04T09:49:53.469Z,99944.91
2019-04-04T09:52:23.959Z,99947.58
2019-04-04T09:54:54.517Z,99945.53
2019-04-04T09:57:25.022Z,99939.84
2019-04-04T09:59:55.816Z,99938.72
2019-04-04T10:02:26.309Z,99845.44
2019-04-04T10:04:56.813Z,99856.39
2019-04-04T10:07:27.286Z,99936.61
2019-04-04T10:09:57.913Z,99935.94
2019-04-04T10:12:29.696Z,99928.50
2019-04-04T10:15:00.255Z,99923.40
2019-04-04T10:17:30.747Z,99924.70
2019-04-04T10:20:01.204Z,99927.86
2019-04-04T10:22:31.746Z,99914.50
2019-04-04T10:25:02.199Z,99912.09
2019-04-04T10:27:32.702Z,99910.85
2019-04-04T10:30:03.477Z,99909.56
2019-04-04T10:32:33.977Z,99909.69
2019-04-04T10:35:04.850Z,99898.84
2019-04-04T10:37:35.327Z,99894.27
2019-04-04T10:40:06.451Z,99886.81
2019-04-04T10:42:36.959Z,99883.81
2019-04-04T10:45:08.330Z,99880.11
2019-04-04T10:47:38.825Z,99875.45
2019-04-04T10:50:09.828Z,99871.95
2019-04-04T10:52:40.280Z,99871.70
2019-04-04T10:55:10.971Z,99878.13
2019-04-04T10:57:41.483Z,99863.16
2019-04-04T11:00:12.697Z,99858.75
2019-04-04T11:02:43.254Z,99851.91
2019-04-04T11:05:14.019Z,99843.22
2019-04-04T11:07:45.380Z,99834.43
2019-04-04T11:10:16.016Z,99829.88
2019-04-04T11:12:46.511Z,99829.11
2019-04-04T11:15:17.061Z,99832.98
2019-04-04T11:17:47.550Z,99826.11
2019-04-04T11:20:18.048Z,99832.09
2019-04-04T11:22:48.640Z,99815.66
2019-04-04T11:25:19.157Z,99807.20
2019-04-04T11:27:49.643Z,99807.47
2019-04-04T11:30:20.362Z,99802.29
2019-04-04T11:32:50.841Z,99799.08
2019-04-04T11:35:21.295Z,99791.17
2019-04-04T11:37:51.774Z,99794.42
2019-04-04T11:40:22.214Z,99792.01
2019-04-04T11:42:52.707Z,99785.72
2019-04-04T11:45:23.329Z,99779.69
2019-04-04T11:47:53.780Z,99775.59
2019-04-04T11:50:24.239Z,99771.53
2019-04-04T11:52:54.730Z,99775.64
2019-04-04T11:55:25.185Z,99778.95
2019-04-04T11:57:55.701Z,99768.55
2019-04-04T12:00:37.060Z,99758.70
2019-04-04T12:03:07.535Z,99749.67
2019-04-04T12:05:38.231Z,99740.94
2019-04-04T12:08:08.736Z,99735.17
2019-04-04T12:10:39.220Z,99741.19
2019-04-04T12:13:09.616Z,99736.25
2019-04-04T12:15:40.069Z,99725.61
2019-04-04T12:18:10.469Z,99713.81
2019-04-04T12:20:43.309Z,99715.50
2019-04-04T12:23:13.058Z,99716.28
2019-04-04T12:25:43.553Z,99718.45
2019-04-04T12:28:13.965Z,99708.88
2019-04-04T12:30:44.421Z,99706.73
2019-04-04T12:33:14.839Z,99701.23
2019-04-04T12:35:45.291Z,99689.44
2019-04-04T12:38:15.736Z,99696.22
2019-04-04T12:40:46.157Z,99692.91
2019-04-04T12:43:16.550Z,99689.34
2019-04-04T12:45:47.018Z,99693.16
2019-04-04T12:48:17.467Z,99683.22
2019-04-04T12:50:48.562Z,99689.23
2019-04-04T12:53:19.108Z,99683.50
2019-04-04T12:55:49.523Z,99676.91
2019-04-04T12:58:19.965Z,99680.74
2019-04-04T13:00:50.366Z,99672.80
2019-04-04T13:03:22.415Z,99678.27
2019-04-04T13:05:53.051Z,99663.48
2019-04-04T13:08:23.506Z,99665.41
2019-04-04T13:10:54.191Z,99652.33
2019-04-04T13:13:24.607Z,99651.48
2019-04-04T13:15:55.090Z,99663.28
2019-04-04T13:18:25.513Z,99650.72
2019-04-04T13:20:55.958Z,99632.91
2019-04-04T13:23:27.364Z,99643.36
2019-04-04T13:25:57.848Z,99640.64
2019-04-04T13:28:28.290Z,99627.79
2019-04-04T13:30:59.103Z,99635.72
2019-04-04T13:33:29.528Z,99629.40
2019-04-04T13:35:59.991Z,99632.39
2019-04-04T13:38:30.480Z,99626.57
2019-04-04T13:41:00.895Z,99625.80
2019-04-04T13:43:31.334Z,99613.39
2019-04-04T13:46:01.751Z,99624.91
2019-04-04T13:48:32.194Z,99611.75
2019-04-04T13:51:02.631Z,99612.00
2019-04-04T13:53:33.164Z,99607.33
2019-04-04T13:56:03.606Z,99609.80
2019-04-04T13:58:34.018Z,99607.13
2019-04-04T14:01:04.462Z,99605.69
2019-04-04T14:03:34.874Z,99609.84
2019-04-04T14:06:05.443Z,99604.95
2019-04-04T14:08:39.215Z,99601.92
2019-04-04T14:11:08.009Z,99600.34
2019-04-04T14:13:38.467Z,99593.20
2019-04-04T14:16:08.867Z,99587.52
2019-04-04T14:18:40.183Z,99585.02
2019-04-04T14:21:11.434Z,99588.04
2019-04-04T14:23:41.870Z,99588.30
2019-04-04T14:26:12.329Z,99588.52
2019-04-04T14:28:42.767Z,99590.44
2019-04-04T14:31:13.213Z,99589.42
2019-04-04T14:33:43.622Z,99590.56
2019-04-04T14:36:14.098Z,99588.09
2019-04-04T14:38:44.618Z,99590.25
2019-04-04T14:41:15.113Z,99508.95
2019-04-04T14:43:45.527Z,99590.55
2019-04-04T14:46:15.968Z,99579.39
2019-04-04T14:48:46.370Z,99581.00
2019-04-04T14:51:16.831Z,99576.89
2019-04-04T14:53:47.342Z,99586.95
2019-04-04T14:56:17.799Z,99587.20
2019-04-04T14:58:48.219Z,99592.69
2019-04-04T15:01:18.724Z,99581.48
2019-04-04T15:03:49.175Z,99583.11
2019-04-04T15:06:19.570Z,99590.49
2019-04-04T15:08:50.048Z,99584.45
2019-04-04T15:11:24.275Z,99578.12
2019-04-04T15:13:52.601Z,99586.33
2019-04-04T15:16:23.109Z,99578.12
2019-04-04T15:18:53.546Z,99573.47
2019-04-04T15:21:23.987Z,99576.79
2019-04-04T15:23:54.385Z,99583.59
2019-04-04T15:26:24.090Z,99577.90
2019-04-04T15:28:54.485Z,99573.49
2019-04-04T15:31:24.874Z,99571.50
2019-04-04T15:33:55.373Z,99577.28
2019-04-04T15:36:25.813Z,99571.27
2019-04-04T15:38:56.213Z,99570.20
2019-04-04T15:41:36.384Z,99569.15
2019-04-04T15:43:58.791Z,99572.20
2019-04-04T15:46:29.271Z,99573.08
2019-04-04T15:48:59.687Z,99569.29
2019-04-04T15:51:30.125Z,99570.14
2019-04-04T15:54:00.533Z,99578.35
2019-04-04T15:56:30.928Z,99579.20
2019-04-04T15:59:01.367Z,99574.86
2019-04-04T16:01:31.809Z,99576.31
2019-04-04T16:04:02.249Z,99570.79
2019-04-04T16:06:32.699Z,99574.65
2019-04-04T16:09:05.205Z,99577.91
2019-04-04T16:11:35.623Z,99571.38
2019-04-04T16:14:06.270Z,99567.02
2019-04-04T16:16:36.681Z,99566.98
2019-04-04T16:19:07.075Z,99570.28
2019-04-04T16:21:37.484Z,99572.75
2019-04-04T16:24:07.933Z,99563.20
2019-04-04T16:26:38.348Z,99567.83
2019-04-04T16:29:08.797Z,99511.61
2019-04-04T16:31:39.202Z,99565.94
2019-04-04T16:34:09.593Z,99557.49
2019-04-04T16:36:40.135Z,99569.79
2019-04-04T16:39:10.630Z,99573.07
2019-04-04T16:41:41.070Z,99564.34
2019-04-04T16:44:11.515Z,99574.17
2019-04-04T16:46:41.938Z,99570.62
2019-04-04T16:49:12.387Z,99573.34
2019-04-04T16:51:42.790Z,99574.16
2019-04-04T16:54:13.228Z,99576.09
2019-04-04T16:56:43.641Z,99570.05
2019-04-04T16:59:14.035Z,99570.89
2019-04-04T17:01:44.475Z,99570.89
2019-04-04T17:04:14.906Z,99568.12
2019-04-04T17:06:45.289Z,99567.55
2019-04-04T17:09:15.732Z,99569.70
2019-04-04T17:11:46.139Z,99572.72
2019-04-04T17:14:16.574Z,99574.31
2019-04-04T17:16:46.989Z,99570.77
2019-04-04T17:19:17.493Z,99572.06
2019-04-04T17:21:47.950Z,99570.95
2019-04-04T17:24:18.419Z,99583.43
2019-04-04T17:26:48.905Z,99578.23
2019-04-04T17:29:19.383Z,99585.05
2019-04-04T17:31:50.278Z,99589.08
2019-04-04T17:34:20.801Z,99586.09
2019-04-04T17:36:51.497Z,99589.33
2019-04-04T17:39:22.030Z,99595.59
2019-04-04T17:41:52.580Z,99599.67
2019-04-04T17:44:23.069Z,99603.51
2019-04-04T17:46:53.904Z,99603.76
2019-04-04T17:49:24.398Z,99606.73
2019-04-04T17:51:54.956Z,99614.05
2019-04-04T17:54:25.787Z,99615.14
2019-04-04T17:56:56.324Z,99617.86
2019-04-04T17:59:26.827Z,99626.84
2019-04-04T18:01:57.278Z,99635.81
2019-04-04T18:04:27.781Z,99630.80
2019-04-04T18:06:58.279Z,99633.80
2019-04-04T18:09:32.063Z,99636.20
2019-04-04T18:12:01.110Z,99634.52
2019-04-04T18:14:31.572Z,99629.61
2019-04-04T18:17:02.068Z,99637.47
2019-04-04T18:19:32.614Z,99631.70
2019-04-04T18:22:03.127Z,99638.51
2019-04-04T18:24:33.636Z,99634.94
2019-04-04T18:27:04.139Z,99633.00
2019-04-04T18:29:34.649Z,99644.39
2019-04-04T18:32:05.439Z,99645.97
2019-04-04T18:34:35.965Z,99649.07
2019-04-04T18:37:06.826Z,99651.75
2019-04-04T18:39:37.271Z,99655.99
2019-04-04T18:42:07.868Z,99652.44
2019-04-04T18:44:38.351Z,99657.86
2019-04-04T18:47:08.896Z,99660.56
2019-04-04T18:49:39.488Z,99660.46
2019-04-04T18:52:09.933Z,99664.56
2019-04-04T18:54:40.370Z,99674.63
2019-04-04T18:57:13.158Z,99670.53
2019-04-04T18:59:43.441Z,99669.44
2019-04-04T19:02:14.079Z,99668.88
2019-04-04T19:04:44.537Z,99671.79
2019-04-04T19:07:15.131Z,99668.25
2019-04-04T19:09:45.583Z,99671.44
2019-04-04T19:12:16.112Z,99680.28
2019-04-04T19:14:46.543Z,99682.22
2019-04-04T19:17:17.092Z,99678.52
2019-04-04T19:19:47.584Z,99680.44
2019-04-04T19:22:18.145Z,99679.74
2019-04-04T19:24:48.786Z,99580.70
2019-04-04T19:27:19.283Z,99684.78
2019-04-04T19:29:49.738Z,99688.73
2019-04-04T19:32:20.331Z,99692.36
2019-04-04T19:34:50.776Z,99703.05
2019-04-04T19:37:21.262Z,99694.63
2019-04-04T19:39:54.251Z,99699.33
2019-04-04T19:42:23.954Z,99699.74
2019-04-04T19:44:54.388Z,99699.47
2019-04-04T19:47:24.855Z,99705.16
2019-04-04T19:49:55.299Z,99708.69
2019-04-04T19:52:25.881Z,99709.23
2019-04-04T19:54:56.311Z,99710.67
2019-04-04T19:57:26.803Z,99721.62
2019-04-04T19:59:57.252Z,99720.62
2019-04-04T20:02:27.717Z,99729.39
2019-04-04T20:04:58.185Z,99730.34
2019-04-04T20:07:28.618Z,99726.94
2019-04-04T20:09:59.065Z,99727.30
2019-04-04T20:12:29.579Z,99727.35
2019-04-04T20:15:00.058Z,99732.56
2019-04-04T20:17:30.564Z,99743.75
2019-04-04T20:20:01.060Z,99750.11
2019-04-04T20:22:31.505Z,99752.33
2019-04-04T20:25:01.989Z,99753.44
2019-04-04T20:27:32.429Z,99748.45
2019-04-04T20:30:03.014Z,99757.89
2019-04-04T20:32:33.455Z,99759.73
2019-04-04T20:35:04.057Z,99768.90
2019-04-04T20:37:34.556Z,99768.56
2019-04-04T20:40:05.141Z,99775.88
2019-04-04T20:42:35.595Z,99778.92
2019-04-04T20:45:07.265Z,99777.88
2019-04-04T20:47:37.746Z,99779.77
2019-04-04T20:50:08.501Z,99781.13
2019-04-04T20:52:38.941Z,99778.10
2019-04-04T20:55:09.415Z,99776.16
2019-04-04T20:57:39.905Z,99781.99
2019-04-04T21:00:10.662Z,99789.58
2019-04-04T21:02:41.155Z,99792.39
2019-04-04T21:05:11.787Z,99793.16
2019-04-04T21:07:42.242Z,99787.90
2019-04-04T21:10:12.982Z,99791.22
2019-04-04T21:12:43.476Z,99795.59
2019-04-04T21:15:14.156Z,99805.39
2019-04-04T21:17:44.585Z,99806.90
2019-04-04T21:20:15.062Z,99801.48
2019-04-04T21:22:45.517Z,99802.69
2019-04-04T21:25:16.017Z,99805.39
2019-04-04T21:27:46.501Z,99800.91
2019-04-04T21:30:17.460Z,99792.39
2019-04-04T21:32:47.954Z,99794.21
2019-04-04T21:35:18.408Z,99800.91
2019-04-04T21:37:48.849Z,99793.98
2019-04-04T21:40:19.334Z,99795.21
2019-04-04T21:42:49.769Z,99794.55
2019-04-04T21:45:20.328Z,99797.16
2019-04-04T21:47:50.772Z,99804.00
2019-04-04T21:50:21.246Z,99809.94
2019-04-04T21:52:51.726Z,99812.64
2019-04-04T21:55:22.172Z,99812.05
2019-04-04T21:57:52.647Z,99809.42
2019-04-04T22:00:23.795Z,99802.06
2019-04-04T22:02:54.220Z,99803.70
2019-04-04T22:05:24.662Z,99805.13
2019-04-04T22:07:55.141Z,99807.91
2019-04-04T22:10:25.628Z,99803.17
2019-04-04T22:12:56.273Z,99817.23
2019-04-04T22:15:26.696Z,99816.38
2019-04-04T22:17:57.171Z,99822.31
2019-04-04T22:20:27.751Z,99822.60
2019-04-04T22:22:58.246Z,99819.51
2019-04-04T22:25:28.672Z,99818.91
2019-04-04T22:27:59.138Z,99827.47
2019-04-04T22:30:29.627Z,99828.82
2019-04-04T22:33:01.756Z,99830.39
2019-04-04T22:35:32.344Z,99831.74
2019-04-04T22:38:02.789Z,99835.92
2019-04-04T22:40:33.224Z,99837.95
2019-04-04T22:43:03.657Z,99837.06
2019-04-04T22:45:34.128Z,99838.70
2019-04-04T22:48:04.770Z,99835.10
2019-04-04T22:50:35.251Z,99842.47
2019-04-04T22:53:05.781Z,99842.07
2019-04-04T22:55:36.451Z,99834.92
2019-04-04T22:58:06.900Z,99835.38
2019-04-04T23:00:37.458Z,99834.69
2019-04-04T23:03:08.117Z,99832.49
2019-04-04T23:05:38.556Z,99836.52
2019-04-04T23:08:08.997Z,99837.88
2019-04-04T23:10:39.431Z,99839.28
2019-04-04T23:13:09.908Z,99836.26
2019-04-04T23:15:40.358Z,99831.59
2019-04-04T23:18:10.849Z,99824.55
2019-04-04T23:20:41.599Z,99827.79
2019-04-04T23:23:12.078Z,99826.17
2019-04-04T23:25:42.722Z,99827.73
2019-04-04T23:28:13.197Z,99828.88
2019-04-04T23:30:43.633Z,99817.67
2019-04-04T23:33:14.115Z,99824.74
2019-04-04T23:35:44.554Z,99827.66
2019-04-04T23:38:15.033Z,99823.89
2019-04-04T23:40:45.483Z,99825.16
2019-04-04T23:43:15.960Z,99817.19
2019-04-04T23:45:46.400Z,99817.94
2019-04-04T23:48:16.843Z,99818.99
2019-04-04T23:50:47.315Z,99825.13
2019-04-04T23:53:17.746Z,99825.66
2019-04-04T23:55:48.219Z,99827.96
2019-04-04T23:58:18.855Z,99831.08
